createdAt,value
2019-03-15T00:04:08.868Z,991
2019-03-15T00:09:37.393Z,991
2019-03-15T00:15:05.788Z,991
2019-03-15T00:20:33.342Z,991
2019-03-15T00:26:00.684Z,992
2019-03-15T00:31:28.159Z,992
2019-03-15T00:36:56.681Z,992
2019-03-15T00:42:24.082Z,992
2019-03-15T00:47:51.629Z,992
2019-03-15T00:53:19.075Z,992
2019-03-15T00:58:46.566Z,992
2019-03-15T01:04:15.050Z,992
2019-03-15T01:09:43.494Z,992
2019-03-15T01:15:10.919Z,993
2019-03-15T01:20:38.466Z,993
2019-03-15T01:26:06.823Z,993
2019-03-15T01:31:34.307Z,993
2019-03-15T01:37:02.196Z,993
2019-03-15T01:42:29.195Z,993
2019-03-15T01:47:56.697Z,993
2019-03-15T01:53:25.088Z,994
2019-03-15T01:58:52.534Z,994
2019-03-15T02:04:21.016Z,994
2019-03-15T02:09:48.535Z,994
2019-03-15T02:15:15.942Z,994
2019-03-15T02:20:43.413Z,994
2019-03-15T02:26:10.868Z,994
2019-03-15T02:31:39.364Z,994
2019-03-15T02:37:07.979Z,994
2019-03-15T02:42:35.306Z,994
2019-03-15T02:48:03.947Z,994
2019-03-15T02:53:31.349Z,994
2019-03-15T02:58:58.728Z,994
2019-03-15T03:04:26.214Z,994
2019-03-15T03:09:54.698Z,994
2019-03-15T03:15:23.158Z,994
2019-03-15T03:20:51.632Z,994
2019-03-15T03:26:19.058Z,994
2019-03-15T03:31:47.525Z,994
2019-03-15T03:37:15.131Z,994
2019-03-15T03:42:42.518Z,995
2019-03-15T03:48:10.970Z,995
2019-03-15T03:53:39.327Z,995
2019-03-15T03:59:07.823Z,995
2019-03-15T04:04:36.240Z,995
2019-03-15T04:10:05.626Z,995
2019-03-15T04:15:32.140Z,995
2019-03-15T04:21:00.534Z,995
2019-03-15T04:26:27.914Z,995
2019-03-15T04:31:55.343Z,995
2019-03-15T04:37:23.811Z,995
2019-03-15T04:42:52.363Z,995
2019-03-15T04:48:19.710Z,995
2019-03-15T04:53:47.330Z,995
2019-03-15T04:59:14.613Z,995
2019-03-15T05:04:42.072Z,995
2019-03-15T05:10:09.590Z,995
2019-03-15T05:15:36.977Z,995
2019-03-15T05:21:05.438Z,995
2019-03-15T05:26:32.859Z,995
2019-03-15T05:32:00.450Z,995
2019-03-15T05:37:28.810Z,995
2019-03-15T05:42:57.251Z,995
2019-03-15T05:48:24.718Z,995
2019-03-15T05:53:53.210Z,994
2019-03-15T06:15:44.009Z,994
2019-03-15T06:21:11.487Z,994
2019-03-15T06:26:39.006Z,994
2019-03-15T06:32:07.604Z,994
2019-03-15T06:37:34.879Z,994
2019-03-15T06:43:02.386Z,994
2019-03-15T06:48:30.843Z,994
2019-03-15T06:54:10.489Z,994
2019-03-15T06:59:25.834Z,994
2019-03-15T07:04:54.463Z,994
2019-03-15T07:10:22.864Z,994
2019-03-15T07:15:50.448Z,994
2019-03-15T07:21:18.910Z,994
2019-03-15T07:26:46.493Z,994
2019-03-15T07:32:13.929Z,994
2019-03-15T07:37:45.226Z,994
2019-03-15T07:43:10.979Z,994
2019-03-15T07:48:38.524Z,994
2019-03-15T07:54:06.064Z,993
2019-03-15T07:59:34.607Z,993
2019-03-15T08:05:02.138Z,993
2019-03-15T08:10:29.691Z,994
2019-03-15T08:15:58.258Z,993
2019-03-15T08:21:25.859Z,993
2019-03-15T08:26:54.330Z,993
2019-03-15T08:32:21.907Z,993
2019-03-15T08:37:49.527Z,993
2019-03-15T08:43:17.059Z,993
2019-03-15T08:48:44.721Z,993
2019-03-15T08:54:13.212Z,993
2019-03-15T08:59:52.713Z,993
2019-03-15T09:05:08.449Z,993
2019-03-15T09:10:36.988Z,993
2019-03-15T09:16:04.622Z,992
2019-03-15T09:21:32.229Z,992
2019-03-15T09:27:00.931Z,992
2019-03-15T09:32:28.586Z,992
2019-03-15T09:37:57.051Z,992
2019-03-15T09:43:24.646Z,992
2019-03-15T09:48:52.243Z,991
2019-03-15T09:54:19.836Z,991
2019-03-15T09:59:48.395Z,991
2019-03-15T10:05:15.995Z,991
2019-03-15T10:10:43.600Z,991
2019-03-15T10:16:12.245Z,991
2019-03-15T10:21:39.791Z,991
2019-03-15T10:27:07.363Z,991
2019-03-15T10:32:34.910Z,990
2019-03-15T10:38:03.545Z,990
2019-03-15T10:43:32.048Z,990
2019-03-15T10:49:00.609Z,990
2019-03-15T10:54:29.131Z,990
2019-03-15T10:59:56.703Z,989
2019-03-15T11:05:24.284Z,989
2019-03-15T11:10:52.761Z,989
2019-03-15T11:16:20.333Z,989
2019-03-15T11:21:49.077Z,988
2019-03-15T11:27:17.439Z,988
2019-03-15T11:32:45.975Z,988
2019-03-15T11:43:42.283Z,988
2019-03-15T11:49:10.659Z,988
2019-03-15T11:54:39.565Z,987
2019-03-15T12:00:07.832Z,987
2019-03-15T12:05:36.426Z,987
2019-03-15T12:11:03.906Z,987
2019-03-15T12:16:32.458Z,987
2019-03-15T12:22:05.950Z,987
2019-03-15T12:27:27.648Z,987
2019-03-15T12:32:56.969Z,986
2019-03-15T12:38:24.755Z,986
2019-03-15T12:43:53.419Z,986
2019-03-15T12:49:20.986Z,986
2019-03-15T12:54:48.731Z,986
2019-03-15T13:00:16.430Z,986
2019-03-15T13:05:44.931Z,986
2019-03-15T13:11:13.576Z,986
2019-03-15T13:16:41.221Z,986
2019-03-15T13:22:09.827Z,986
2019-03-15T13:27:37.541Z,986
2019-03-15T13:33:15.088Z,986
2019-03-15T13:38:33.885Z,986
2019-03-15T13:44:02.648Z,986
2019-03-15T13:49:30.350Z,986
2019-03-15T13:55:03.946Z,987
2019-03-15T14:00:26.590Z,987
2019-03-15T14:05:55.301Z,987
2019-03-15T14:11:22.933Z,987
2019-03-15T14:16:50.704Z,987
2019-03-15T14:22:19.348Z,987
2019-03-15T14:27:47.383Z,987
2019-03-15T14:33:15.793Z,987
2019-03-15T14:38:44.542Z,987
2019-03-15T14:44:13.174Z,987
2019-03-15T14:49:40.606Z,987
2019-03-15T14:55:09.273Z,987
2019-03-15T15:00:37.943Z,987
2019-03-15T15:06:06.575Z,987
2019-03-15T15:11:34.243Z,987
2019-03-15T15:17:04.638Z,987
2019-03-15T15:22:29.629Z,987
2019-03-15T15:28:05.024Z,987
2019-03-15T15:33:25.868Z,987
2019-03-15T15:38:54.567Z,987
2019-03-15T15:44:22.146Z,987
2019-03-15T15:49:49.891Z,987
2019-03-15T16:00:47.109Z,987
2019-03-15T16:06:15.793Z,987
2019-03-15T16:11:43.597Z,987
2019-03-15T16:17:12.107Z,987
2019-03-15T16:22:40.733Z,988
2019-03-15T16:28:08.236Z,988
2019-03-15T16:33:35.880Z,988
2019-03-15T16:39:04.493Z,988
2019-03-15T16:44:33.091Z,988
2019-03-15T16:50:01.803Z,988
2019-03-15T16:55:29.399Z,988
2019-03-15T17:00:57.902Z,988
2019-03-15T17:06:25.470Z,988
2019-03-15T17:11:54.059Z,988
2019-03-15T17:17:21.709Z,988
2019-03-15T17:22:49.223Z,989
2019-03-15T17:28:17.809Z,989
2019-03-15T17:33:45.344Z,989
2019-03-15T17:39:13.862Z,989
2019-03-15T17:44:42.378Z,989
2019-03-15T17:50:09.870Z,989
2019-03-15T17:55:37.341Z,990
2019-03-15T18:01:04.802Z,990
2019-03-15T18:06:32.501Z,990
2019-03-15T18:12:00.697Z,990
2019-03-15T18:17:28.166Z,990
2019-03-15T18:22:55.652Z,990
2019-03-15T18:28:24.104Z,990
2019-03-15T18:33:52.633Z,990
2019-03-15T18:39:20.281Z,991
2019-03-15T18:44:48.604Z,991
2019-03-15T18:50:16.081Z,991
2019-03-15T18:55:43.614Z,991
2019-03-15T19:01:11.138Z,991
2019-03-15T19:06:39.480Z,991
2019-03-15T19:12:06.950Z,991
2019-03-15T19:17:35.395Z,991
2019-03-15T19:23:02.940Z,991
2019-03-15T19:28:30.424Z,992
2019-03-15T19:33:58.863Z,992
2019-03-15T19:39:27.582Z,992
2019-03-15T19:44:54.818Z,992
2019-03-15T19:50:22.277Z,992
2019-03-15T19:55:49.979Z,992
2019-03-15T20:01:17.251Z,992
2019-03-15T20:06:45.768Z,992
2019-03-15T20:12:13.145Z,992
2019-03-15T20:17:41.697Z,993
2019-03-15T20:23:10.895Z,993
2019-03-15T20:28:37.598Z,993
2019-03-15T20:34:06.085Z,993
2019-03-15T20:39:33.607Z,993
2019-03-15T20:45:01.869Z,993
2019-03-15T20:50:29.465Z,993
2019-03-15T20:55:56.954Z,993
2019-03-15T21:01:25.346Z,993
2019-03-15T21:06:53.831Z,993
2019-03-15T21:12:22.281Z,993
2019-03-15T21:17:50.761Z,994
2019-03-15T21:23:19.211Z,994
2019-03-15T21:28:46.694Z,994
2019-03-15T21:34:15.154Z,994
2019-03-15T21:39:42.636Z,994
2019-03-15T21:45:10.412Z,994
2019-03-15T21:50:38.620Z,995
2019-03-15T22:01:35.515Z,995
2019-03-15T22:07:02.973Z,995
2019-03-15T22:12:31.332Z,995
2019-03-15T22:17:59.713Z,995
2019-03-15T22:23:28.163Z,995
2019-03-15T22:28:56.594Z,995
2019-03-15T22:34:25.028Z,995
2019-03-15T22:39:52.457Z,995
2019-03-15T22:45:19.999Z,995
2019-03-15T22:50:47.796Z,995
2019-03-15T22:56:15.807Z,995
2019-03-15T23:01:43.513Z,995
2019-03-15T23:07:10.783Z,996
2019-03-15T23:12:38.260Z,996
2019-03-15T23:18:06.756Z,996
2019-03-15T23:23:35.182Z,996
2019-03-15T23:29:02.719Z,996
2019-03-15T23:34:30.286Z,996
2019-03-15T23:39:57.648Z,996
2019-03-15T23:45:25.065Z,996
2019-03-15T23:50:52.534Z,996
2019-03-15T23:56:20.998Z,996
